Terminal Aerodrome Forecast
Issued by NWS Brownsville, TX

Home | Current Version | Previous Version | Text Only | Print | Product List | Glossary On
Versions: 1 2 3 4 5 6 7 8 9 10 11 12 13 14 15 16 17 18 19 20 21 22 23 24 25 26 27 28 29
000
FTUS44 KBRO 012334
TAFMFE
TAF
KMFE 012334Z 0200/0224 14016G24KT P6SM SCT040
     FM020200 15012KT P6SM SCT040
     FM020600 14013KT P6SM OVC015
     FM020900 14009KT P6SM OVC007
     FM021200 14007KT 5SM BR OVC007
     FM021500 15015KT P6SM BKN015=

USA.gov is the U.S. government's official web portal to all federal, state and local government web resources and services.